Time;durP1;ratioP1;P1;durP2;ratioP2;P2;SDS_P1;SDS_P2;PMS_P1;PMS_P2;Temp;Humidity;BMP_temperature;BMP_pressure;BME280_temperature;BME280_humidity;BME280_pressure;Samples;Min_cycle;Max_cycle;Signal;HPM_P1;HPM_P2
2022/09/11 00:00:48;;;;;;;25.43;14.33;;;;;;;10.85;100.00;99402.06;4205211;28;20479;-69
2022/09/11 00:03:16;;;;;;;27.37;14.57;;;;;;;10.87;100.00;99405.38;4191493;28;20341;-69
2022/09/11 00:05:43;;;;;;;29.10;15.37;;;;;;;10.88;100.00;99401.69;4189393;28;21911;-70
2022/09/11 00:08:12;;;;;;;26.00;14.20;;;;;;;10.88;100.00;99404.34;4199254;28;20245;-71
2022/09/11 00:10:41;;;;;;;30.37;14.97;;;;;;;10.82;100.00;99394.41;4190412;28;21233;-71
2022/09/11 00:13:18;;;;;;;29.57;14.70;;;;;;;10.83;100.00;99395.25;4197037;28;21758;-69
2022/09/11 00:15:44;;;;;;;27.17;14.73;;;;;;;10.88;100.00;99398.22;4194290;28;22762;-69
2022/09/11 00:18:13;;;;;;;25.40;14.07;;;;;;;10.89;100.00;99395.38;4197764;28;20233;-68
2022/09/11 00:20:48;;;;;;;24.53;12.57;;;;;;;10.95;100.00;99394.69;4205677;28;20244;-71
2022/09/11 00:23:16;;;;;;;29.53;13.90;;;;;;;10.96;100.00;99393.69;4195884;28;23263;-70
2022/09/11 00:25:45;;;;;;;30.20;13.90;;;;;;;10.93;100.00;99399.38;4187526;28;20238;-69
2022/09/11 00:28:16;;;;;;;32.33;13.73;;;;;;;10.92;100.00;99391.53;4187534;28;25756;-71
2022/09/11 00:30:43;;;;;;;28.57;14.40;;;;;;;10.92;100.00;99387.03;4195049;28;20236;-70
2022/09/11 00:33:14;;;;;;;26.93;14.20;;;;;;;10.90;100.00;99386.38;4194077;28;21107;-70
2022/09/11 00:35:41;;;;;;;28.33;14.70;;;;;;;10.95;100.00;99381.38;4197699;28;20307;-70
2022/09/11 00:38:08;;;;;;;26.90;15.33;;;;;;;10.90;100.00;99380.25;4201630;28;22163;-70
2022/09/11 00:40:46;;;;;;;28.13;15.30;;;;;;;10.91;100.00;99377.41;4201265;28;20246;-71
2022/09/11 00:43:14;;;;;;;28.00;14.60;;;;;;;10.86;100.00;99374.41;4197283;28;20324;-69
2022/09/11 00:45:40;;;;;;;27.87;14.30;;;;;;;10.90;100.00;99373.06;4201305;28;20237;-68
2022/09/11 00:48:08;;;;;;;32.83;16.83;;;;;;;10.90;100.00;99369.59;4201606;28;20235;-67
2022/09/11 00:50:34;;;;;;;26.90;15.33;;;;;;;10.89;100.00;99367.94;4191925;28;22188;-67
2022/09/11 00:53:10;;;;;;;28.53;15.27;;;;;;;10.92;100.00;99365.75;4187305;28;20330;-70
2022/09/11 00:55:40;;;;;;;29.60;14.80;;;;;;;10.85;100.00;99363.97;4199701;28;21860;-69
2022/09/11 00:58:11;;;;;;;31.70;16.57;;;;;;;10.84;100.00;99368.47;4197713;28;23508;-70
2022/09/11 01:00:38;;;;;;;28.17;15.63;;;;;;;10.87;100.00;99368.13;4188104;28;20229;-70
2022/09/11 01:03:05;;;;;;;30.83;16.33;;;;;;;10.85;100.00;99363.97;4203620;28;20237;-68
2022/09/11 01:05:33;;;;;;;27.90;17.07;;;;;;;10.88;100.00;99366.28;4198674;28;20318;-67
2022/09/11 01:08:02;;;;;;;29.10;15.73;;;;;;;10.89;100.00;99363.44;4188025;28;20241;-69
2022/09/11 01:10:41;;;;;;;29.83;17.07;;;;;;;10.93;100.00;99363.91;4191879;28;22310;-69
2022/09/11 01:13:31;;;;;;;38.03;19.57;;;;;;;10.90;100.00;99364.28;4183704;28;20589;-69
2022/09/11 01:16:23;;;;;;;37.63;19.73;;;;;;;10.90;100.00;99357.09;4196671;28;21417;-69
2022/09/11 01:19:26;;;;;;;39.10;20.17;;;;;;;10.87;100.00;99353.97;4193579;28;20671;-70
2022/09/11 01:22:26;;;;;;;38.10;21.17;;;;;;;10.86;100.00;99347.81;4179930;28;20348;-71
2022/09/11 01:25:27;;;;;;;40.30;21.03;;;;;;;10.85;100.00;99348.81;4199102;28;20243;-71
2022/09/11 01:27:56;;;;;;;41.77;21.63;;;;;;;10.76;100.00;99342.69;4200209;28;20592;-69
2022/09/11 01:30:39;;;;;;;37.10;20.40;;;;;;;10.72;100.00;99340.56;4189319;28;20254;-70
2022/09/11 01:33:24;;;;;;;37.57;19.57;;;;;;;10.75;100.00;99345.56;4198093;28;20230;-70
2022/09/11 01:36:12;;;;;;;40.40;21.33;;;;;;;10.66;100.00;99347.41;4205518;28;20240;-72
2022/09/11 01:38:58;;;;;;;36.03;19.43;;;;;;;10.74;100.00;99343.88;4203347;28;20684;-70
2022/09/11 01:41:32;;;;;;;34.07;19.50;;;;;;;10.73;100.00;99331.59;4207836;28;20308;-70
2022/09/11 01:44:06;;;;;;;35.07;19.80;;;;;;;10.64;100.00;99337.94;4194391;28;20340;-72
2022/09/11 01:46:39;;;;;;;36.13;19.83;;;;;;;10.71;100.00;99349.56;4197754;28;20972;-69
2022/09/11 01:49:16;;;;;;;34.37;19.07;;;;;;;10.66;100.00;99331.44;4188881;28;20237;-68
2022/09/11 01:51:46;;;;;;;35.33;19.43;;;;;;;10.67;100.00;99340.25;4177617;28;20604;-69
2022/09/11 01:54:15;;;;;;;36.00;19.60;;;;;;;10.71;100.00;99337.06;4199329;28;20367;-70
2022/09/11 01:56:46;;;;;;;40.07;21.37;;;;;;;10.70;100.00;99337.22;4196302;28;20391;-67
2022/09/11 01:59:15;;;;;;;37.73;21.70;;;;;;;10.69;100.00;99330.28;4203203;28;20225;-69
2022/09/11 02:01:49;;;;;;;36.23;20.17;;;;;;;10.77;100.00;99332.91;4187052;28;20246;-69
2022/09/11 02:04:26;;;;;;;39.30;20.27;;;;;;;10.79;100.00;99336.19;4187863;28;20242;-69
2022/09/11 02:07:21;;;;;;;37.97;21.53;;;;;;;10.74;100.00;99335.88;4198915;28;20391;-69
2022/09/11 02:09:57;;;;;;;35.30;20.23;;;;;;;10.69;100.00;99331.09;4197498;28;20709;-70
2022/09/11 02:12:27;;;;;;;37.33;19.87;;;;;;;10.67;100.00;99327.78;4209156;28;20585;-71
2022/09/11 02:14:54;;;;;;;38.07;21.03;;;;;;;10.60;100.00;99329.47;4188453;28;20234;-71
2022/09/11 02:17:45;;;;;;;41.70;22.30;;;;;;;10.62;100.00;99329.31;4193583;28;20230;-69
2022/09/11 02:20:12;;;;;;;40.03;21.57;;;;;;;10.52;100.00;99327.66;4188167;28;20746;-70
2022/09/11 02:22:39;;;;;;;40.20;22.27;;;;;;;10.59;100.00;99332.31;4194674;28;22090;-70
2022/09/11 02:25:06;;;;;;;46.97;23.27;;;;;;;10.59;100.00;99332.31;4187630;28;20237;-70
2022/09/11 02:27:32;;;;;;;46.03;23.50;;;;;;;10.52;100.00;99333.00;4179942;28;21127;-69
2022/09/11 02:29:59;;;;;;;46.50;22.73;;;;;;;10.61;100.00;99332.97;4195242;28;20683;-68
2022/09/11 02:32:26;;;;;;;40.73;22.93;;;;;;;10.59;100.00;99329.66;4185981;28;20238;-69
2022/09/11 02:34:54;;;;;;;44.90;22.90;;;;;;;10.55;100.00;99329.97;4193525;28;20687;-69
2022/09/11 02:37:44;;;;;;;45.43;23.00;;;;;;;10.54;100.00;99325.66;4195232;28;20557;-69
2022/09/11 02:40:40;;;;;;;45.33;22.40;;;;;;;10.57;100.00;99327.97;4188954;28;22141;-69
2022/09/11 02:43:25;;;;;;;50.63;24.93;;;;;;;10.51;100.00;99323.38;4181077;28;20252;-71
2022/09/11 02:46:15;;;;;;;45.40;24.00;;;;;;;10.52;100.00;99318.88;4203454;28;20266;-68
2022/09/11 02:48:54;;;;;;;46.47;23.70;;;;;;;10.52;100.00;99322.34;4204786;28;20404;-70
2022/09/11 02:51:31;;;;;;;49.77;25.47;;;;;;;10.49;100.00;99322.69;4191044;28;21590;-70
2022/09/11 02:54:34;;;;;;;45.80;24.60;;;;;;;10.50;100.00;99324.34;4195774;28;21562;-68
2022/09/11 02:57:08;;;;;;;46.03;23.23;;;;;;;10.49;100.00;99319.22;4189680;28;20227;-69
2022/09/11 02:59:39;;;;;;;48.53;24.77;;;;;;;10.46;100.00;99319.53;4177015;28;20232;-69
2022/09/11 03:02:09;;;;;;;48.57;23.70;;;;;;;10.52;100.00;99318.88;4187294;28;20760;-68
2022/09/11 03:04:36;;;;;;;45.47;25.23;;;;;;;10.59;100.00;99316.34;4192522;28;20897;-69
2022/09/11 03:07:02;;;;;;;45.80;23.83;;;;;;;10.56;100.00;99315.69;4201837;28;21335;-69
2022/09/11 03:09:29;;;;;;;42.63;23.23;;;;;;;10.59;100.00;99316.34;4199645;28;20573;-69
2022/09/11 03:11:56;;;;;;;43.90;23.67;;;;;;;10.51;100.00;99318.03;4202211;28;20234;-69
2022/09/11 03:14:22;;;;;;;43.73;21.67;;;;;;;10.52;100.00;99311.72;4191056;28;20349;-69
2022/09/11 03:16:49;;;;;;;48.07;23.10;;;;;;;10.57;100.00;99314.69;4185514;28;20865;-69
2022/09/11 03:19:15;;;;;;;41.60;22.17;;;;;;;10.52;100.00;99310.88;4182699;28;20240;-70
2022/09/11 03:21:42;;;;;;;41.77;22.47;;;;;;;10.48;100.00;99307.72;4185972;28;20259;-71
2022/09/11 03:24:08;;;;;;;40.30;20.87;;;;;;;10.47;100.00;99310.59;4197999;28;21256;-70
2022/09/11 03:26:36;;;;;;;44.00;22.40;;;;;;;10.46;100.00;99309.72;4198691;28;21849;-70
2022/09/11 03:29:02;;;;;;;42.43;22.00;;;;;;;10.46;100.00;99304.41;4192939;28;20234;-69
2022/09/11 03:31:29;;;;;;;42.93;21.93;;;;;;;10.52;100.00;99303.72;4194879;28;20261;-68
2022/09/11 03:33:56;;;;;;;42.63;21.27;;;;;;;10.48;100.00;99297.09;4201653;28;20410;-71
2022/09/11 03:36:23;;;;;;;38.43;20.23;;;;;;;10.52;100.00;99303.72;4199495;28;20229;-69
2022/09/11 03:38:50;;;;;;;39.80;20.30;;;;;;;10.46;100.00;99298.25;4189947;28;20734;-69
2022/09/11 03:41:16;;;;;;;39.57;20.17;;;;;;;10.44;100.00;99301.13;4203831;28;25087;-71
2022/09/11 03:43:42;;;;;;;40.93;20.87;;;;;;;10.45;100.00;99300.09;4199890;28;20244;-69
2022/09/11 03:46:09;;;;;;;38.23;19.40;;;;;;;10.39;100.00;99300.78;4193284;28;20489;-70
2022/09/11 03:48:36;;;;;;;38.77;19.50;;;;;;;10.38;100.00;99307.13;4203297;28;21055;-71
2022/09/11 03:51:04;;;;;;;36.33;19.03;;;;;;;10.41;100.00;99305.94;4206443;28;20327;-69
2022/09/11 03:53:31;;;;;;;37.40;18.90;;;;;;;10.44;100.00;99301.13;4193098;28;20228;-70
2022/09/11 03:55:59;;;;;;;33.17;18.57;;;;;;;10.47;100.00;99298.09;4189483;28;26691;-69
2022/09/11 03:58:25;;;;;;;38.63;17.87;;;;;;;10.40;100.00;99294.47;4216377;28;20336;-68
2022/09/11 04:00:52;;;;;;;34.30;17.13;;;;;;;10.50;100.00;99295.09;4199411;28;23414;-68
2022/09/11 04:03:18;;;;;;;40.70;19.57;;;;;;;10.43;100.00;99303.94;4195765;28;20300;-69
2022/09/11 04:05:59;;;;;;;33.13;16.73;;;;;;;10.49;100.00;99301.44;4207210;28;20239;-71
2022/09/11 04:08:26;;;;;;;36.40;17.90;;;;;;;10.42;100.00;99303.13;4215891;28;20259;-69
2022/09/11 04:11:00;;;;;;;34.33;16.40;;;;;;;10.43;100.00;99296.78;4197260;28;20669;-69
2022/09/11 04:13:35;;;;;;;34.50;18.07;;;;;;;10.42;100.00;99300.47;4208786;28;20256;-70
2022/09/11 04:16:04;;;;;;;34.73;16.60;;;;;;;10.44;100.00;99294.94;4203686;28;23332;-69
2022/09/11 04:18:33;;;;;;;39.87;17.30;;;;;;;10.40;100.00;99298.97;4195860;28;21500;-67
2022/09/11 04:21:18;;;;;;;36.93;17.87;;;;;;;10.43;100.00;99301.28;4192907;28;23358;-69
2022/09/11 04:23:50;;;;;;;27.83;14.90;;;;;;;10.45;100.00;99296.63;4186498;28;20734;-69
2022/09/11 04:26:19;;;;;;;32.07;16.43;;;;;;;10.45;100.00;99299.28;4198869;28;20278;-68
2022/09/11 04:28:45;;;;;;;34.70;16.87;;;;;;;10.44;100.00;99301.13;4197617;28;20631;-69
2022/09/11 04:31:13;;;;;;;44.30;19.17;;;;;;;10.41;100.00;99297.97;4192817;28;20553;-68
2022/09/11 04:33:40;;;;;;;29.17;16.60;;;;;;;10.45;100.00;99302.75;4195634;28;20233;-69
2022/09/11 04:36:18;;;;;;;32.70;16.83;;;;;;;10.42;100.00;99300.47;4195347;28;21198;-70
2022/09/11 04:38:45;;;;;;;35.37;17.13;;;;;;;10.40;100.00;99301.63;4203367;28;20277;-70
2022/09/11 04:41:14;;;;;;;31.70;16.23;;;;;;;10.38;100.00;99293.81;4199504;28;20232;-68
2022/09/11 04:43:41;;;;;;;36.87;16.73;;;;;;;10.41;100.00;99295.31;4191396;28;20233;-70
2022/09/11 04:46:12;;;;;;;32.93;17.30;;;;;;;10.45;100.00;99302.75;4198211;28;21237;-66
2022/09/11 04:48:46;;;;;;;31.47;15.70;;;;;;;10.48;100.00;99297.09;4207884;28;20230;-69
2022/09/11 04:51:25;;;;;;;33.37;16.90;;;;;;;10.44;100.00;99290.47;4194789;28;20228;-68
2022/09/11 04:53:56;;;;;;;29.10;16.23;;;;;;;10.37;100.00;99289.47;4276712;28;20323;-69
2022/09/11 04:56:24;;;;;;;31.73;16.53;;;;;;;10.42;100.00;99288.97;4218067;28;21041;-67
2022/09/11 04:59:12;;;;;;;31.97;16.20;;;;;;;10.40;100.00;99283.84;4207866;28;20761;-70
2022/09/11 05:01:39;;;;;;;33.27;15.90;;;;;;;10.41;100.00;99280.16;4188620;28;20245;-73
2022/09/11 05:04:05;;;;;;;29.47;15.60;;;;;;;10.41;100.00;99282.81;4229591;28;20237;-75
2022/09/11 05:06:32;;;;;;;30.93;15.00;;;;;;;10.46;100.00;99282.31;4192272;28;21578;-74
2022/09/11 05:09:07;;;;;;;27.77;15.20;;;;;;;10.45;100.00;99285.97;4197733;28;22450;-72
2022/09/11 05:11:34;;;;;;;30.17;15.43;;;;;;;10.40;100.00;99280.34;4212173;28;21885;-71
2022/09/11 05:14:00;;;;;;;28.30;15.47;;;;;;;10.35;100.00;99275.56;4194992;28;20370;-70
2022/09/11 05:16:29;;;;;;;28.30;15.03;;;;;;;10.32;100.00;99276.72;4226080;28;20312;-72
2022/09/11 05:18:57;;;;;;;30.67;15.27;;;;;;;10.33;100.00;99274.91;4213672;28;20240;-72
2022/09/11 05:21:25;;;;;;;25.63;15.63;;;;;;;10.43;100.00;99267.53;4211370;28;21094;-74
2022/09/11 05:23:54;;;;;;;26.40;13.93;;;;;;;10.42;100.00;99270.34;4192810;28;20246;-73
2022/09/11 05:26:25;;;;;;;27.40;14.33;;;;;;;10.34;100.00;99277.38;4206718;28;20238;-72
2022/09/11 05:28:56;;;;;;;24.73;14.50;;;;;;;10.40;100.00;99278.53;4207607;28;21001;-71
2022/09/11 05:31:24;;;;;;;24.97;13.93;;;;;;;10.42;100.00;99275.66;4209042;28;20252;-72
2022/09/11 05:33:52;;;;;;;24.40;13.60;;;;;;;10.34;100.00;99273.88;4216556;28;20590;-73
2022/09/11 05:36:19;;;;;;;23.43;13.37;;;;;;;10.43;100.00;99277.34;4211641;28;20240;-74
2022/09/11 05:38:45;;;;;;;23.77;13.70;;;;;;;10.41;100.00;99282.81;4188479;28;20951;-70
2022/09/11 05:41:12;;;;;;;22.23;13.43;;;;;;;10.54;100.00;99274.31;4179013;28;20307;-72
2022/09/11 05:43:39;;;;;;;22.00;12.33;;;;;;;10.50;100.00;99287.09;4195077;28;21158;-70
2022/09/11 05:46:08;;;;;;;27.60;13.90;;;;;;;10.43;100.00;99280.00;4196811;28;20228;-70
2022/09/11 05:48:37;;;;;;;23.77;12.27;;;;;;;10.42;100.00;99271.19;4186315;28;20231;-70
2022/09/11 05:51:09;;;;;;;20.73;11.57;;;;;;;10.42;100.00;99278.31;4199400;28;20225;-70
2022/09/11 05:53:36;;;;;;;21.37;11.40;;;;;;;10.45;100.00;99278.81;4199592;28;20427;-70
2022/09/11 05:56:17;;;;;;;19.13;11.00;;;;;;;10.52;100.00;99276.31;4188060;28;20256;-71
2022/09/11 05:58:45;;;;;;;22.53;11.67;;;;;;;10.54;100.00;99284.94;4194445;28;20632;-70
2022/09/11 06:01:14;;;;;;;21.17;11.67;;;;;;;10.59;100.00;99287.09;4193122;28;20238;-72
2022/09/11 06:03:40;;;;;;;18.10;10.70;;;;;;;10.55;100.00;99284.75;4197763;28;20268;-71
2022/09/11 06:06:09;;;;;;;17.33;10.00;;;;;;;10.51;100.00;99285.28;4188231;28;21757;-71
2022/09/11 06:08:38;;;;;;;17.63;9.77;;;;;;;10.55;100.00;99287.41;4194901;28;20246;-66
2022/09/11 06:11:06;;;;;;;15.90;9.63;;;;;;;10.48;100.00;99280.31;4204944;28;20232;-67
2022/09/11 06:13:35;;;;;;;19.03;9.97;;;;;;;10.48;100.00;99296.28;4194089;28;20233;-69
2022/09/11 06:16:02;;;;;;;18.17;9.97;;;;;;;10.50;100.00;99295.09;4201672;28;20303;-69
2022/09/11 06:18:28;;;;;;;19.37;9.77;;;;;;;10.45;100.00;99289.47;4197176;28;20239;-68
2022/09/11 06:20:56;;;;;;;15.13;8.80;;;;;;;10.49;100.00;99288.13;4197760;28;21275;-67
2022/09/11 06:23:23;;;;;;;15.47;8.57;;;;;;;10.51;100.00;99290.59;4196178;28;20301;-67
2022/09/11 06:25:52;;;;;;;17.47;10.20;;;;;;;10.49;100.00;99284.66;4200988;28;20744;-68
2022/09/11 06:28:21;;;;;;;15.90;9.50;;;;;;;10.50;100.00;99284.44;4196530;28;20361;-69
2022/09/11 06:30:50;;;;;;;15.83;9.37;;;;;;;10.50;100.00;99279.13;4191705;28;20237;-70
2022/09/11 06:33:19;;;;;;;16.23;9.77;;;;;;;10.55;100.00;99283.94;4210717;28;20248;-69
2022/09/11 06:36:03;;;;;;;19.67;10.30;;;;;;;10.50;100.00;99284.44;4204702;28;20263;-70
2022/09/11 06:38:33;;;;;;;16.77;9.90;;;;;;;10.58;100.00;99291.56;4200602;28;20352;-72
2022/09/11 06:41:03;;;;;;;17.10;9.47;;;;;;;10.51;100.00;99286.13;4202054;28;20248;-70
2022/09/11 06:43:31;;;;;;;17.03;9.10;;;;;;;10.55;100.00;99281.28;4187566;28;20300;-70
2022/09/11 06:46:05;;;;;;;18.47;10.43;;;;;;;10.60;100.00;99278.91;4196779;28;20406;-69
2022/09/11 06:48:32;;;;;;;16.30;10.33;;;;;;;10.65;100.00;99283.72;4201462;28;23284;-72
2022/09/11 06:51:05;;;;;;;17.00;10.33;;;;;;;10.65;100.00;99291.69;4207688;28;20300;-70
2022/09/11 06:53:32;;;;;;;17.13;10.00;;;;;;;10.60;100.00;99284.22;4192013;28;23091;-69
2022/09/11 06:56:01;;;;;;;16.00;9.93;;;;;;;10.71;100.00;99285.69;4206031;28;22376;-73
2022/09/11 06:58:28;;;;;;;17.53;10.43;;;;;;;10.66;100.00;99290.72;4194938;28;20300;-72
2022/09/11 07:00:55;;;;;;;14.80;10.00;;;;;;;10.69;100.00;99291.19;4183969;28;21248;-71
2022/09/11 07:03:22;;;;;;;17.80;10.07;;;;;;;10.70;100.00;99287.53;4202491;28;20230;-71
2022/09/11 07:05:48;;;;;;;18.93;10.57;;;;;;;10.75;100.00;99295.00;4208358;28;20836;-72
2022/09/11 07:08:15;;;;;;;16.67;9.27;;;;;;;10.84;100.00;99295.75;4190308;28;24963;-71
2022/09/11 07:10:41;;;;;;;16.93;10.43;;;;;;;10.81;100.00;99294.28;4202299;28;20300;-71
2022/09/11 07:13:08;;;;;;;19.97;10.33;;;;;;;10.79;100.00;99288.28;4212058;28;20244;-72
2022/09/11 07:15:35;;;;;;;18.10;9.80;;;;;;;10.87;100.00;99296.25;4204458;28;20799;-71
2022/09/11 07:18:01;;;;;;;16.83;9.47;;;;;;;10.83;100.00;99284.28;4194653;28;24215;-74
2022/09/11 07:20:28;;;;;;;17.40;10.43;;;;;;;10.69;100.00;99288.50;4202044;28;20549;-73
2022/09/11 07:22:54;;;;;;;15.83;9.77;;;;;;;10.71;100.00;99277.72;4203001;28;20416;-70
2022/09/11 07:25:21;;;;;;;17.30;10.07;;;;;;;10.73;100.00;99279.19;4195224;28;20237;-72
2022/09/11 07:27:47;;;;;;;17.67;9.47;;;;;;;10.66;100.00;99278.22;4200559;28;21448;-70
2022/09/11 07:30:14;;;;;;;18.60;10.50;;;;;;;10.64;100.00;99274.09;4204272;28;20344;-70
2022/09/11 07:32:40;;;;;;;23.23;10.87;;;;;;;10.70;100.00;99278.69;4210621;28;20726;-70
2022/09/11 07:35:07;;;;;;;17.87;10.30;;;;;;;10.59;100.00;99276.44;4193532;28;20232;-70
2022/09/11 07:37:33;;;;;;;20.90;10.47;;;;;;;10.63;100.00;99280.41;4204857;28;20229;-72
2022/09/11 07:40:00;;;;;;;18.90;10.27;;;;;;;10.64;100.00;99277.56;4198127;28;20521;-73
2022/09/11 07:42:27;;;;;;;17.13;11.13;;;;;;;10.70;100.00;99284.88;4200563;28;22366;-68
2022/09/11 07:44:54;;;;;;;17.57;11.27;;;;;;;10.79;100.00;99280.31;4199545;28;22200;-71
2022/09/11 07:47:21;;;;;;;20.43;10.50;;;;;;;10.67;100.00;99279.06;4207787;28;20352;-71
2022/09/11 07:49:49;;;;;;;20.40;10.33;;;;;;;10.66;100.00;99282.72;4194405;28;20248;-73
2022/09/11 07:52:19;;;;;;;20.77;10.93;;;;;;;10.64;100.00;99276.75;4193208;28;20233;-72
2022/09/11 07:54:45;;;;;;;22.47;10.67;;;;;;;10.66;100.00;99282.72;4210583;28;22204;-71
2022/09/11 07:57:12;;;;;;;21.53;10.83;;;;;;;10.58;100.00;99280.91;4182733;28;21676;-71
2022/09/11 07:59:38;;;;;;;17.50;10.03;;;;;;;10.63;100.00;99278.59;4193757;28;23798;-72
2022/09/11 08:02:06;;;;;;;17.73;9.97;;;;;;;10.67;100.00;99281.72;4203482;28;21760;-72
2022/09/11 08:04:33;;;;;;;18.70;9.77;;;;;;;10.59;100.00;99282.59;4200882;28;20619;-71
2022/09/11 08:06:59;;;;;;;22.27;11.03;;;;;;;10.56;100.00;99293.59;4201540;28;21568;-71
2022/09/11 08:09:26;;;;;;;16.37;9.93;;;;;;;10.57;100.00;99287.25;4205726;28;20302;-71
2022/09/11 08:11:57;;;;;;;25.90;11.13;;;;;;;10.57;100.00;99290.72;4200646;28;20311;-73
2022/09/11 08:14:26;;;;;;;19.37;10.03;;;;;;;10.62;100.00;99284.06;4179523;28;22427;-70
2022/09/11 08:16:53;;;;;;;17.37;10.07;;;;;;;10.67;100.00;99281.72;4208071;28;20339;-70
2022/09/11 08:19:21;;;;;;;20.93;10.17;;;;;;;10.65;100.00;99276.59;4189922;28;20479;-70
2022/09/11 08:21:49;;;;;;;18.23;10.13;;;;;;;10.70;100.00;99289.34;4194902;28;21743;-73
2022/09/11 08:24:23;;;;;;;19.07;9.97;;;;;;;10.69;100.00;99283.19;4203068;28;20230;-73
2022/09/11 08:26:49;;;;;;;21.10;9.77;;;;;;;10.69;100.00;99282.38;4200300;28;20239;-72
2022/09/11 08:29:17;;;;;;;25.03;10.43;;;;;;;10.55;100.00;99283.94;4195427;28;20233;-69
2022/09/11 08:31:44;;;;;;;20.70;9.83;;;;;;;10.60;100.00;99286.06;4194191;28;23538;-71
2022/09/11 08:34:10;;;;;;;18.80;9.50;;;;;;;10.60;100.00;99286.91;4194088;28;20299;-72
2022/09/11 08:36:37;;;;;;;21.53;10.17;;;;;;;10.59;100.00;99287.91;4189802;28;20305;-69
2022/09/11 08:39:04;;;;;;;17.47;9.07;;;;;;;10.48;100.00;99285.63;4192526;28;21614;-73
2022/09/11 08:41:35;;;;;;;17.17;9.03;;;;;;;10.44;100.00;99285.16;4203301;28;20825;-70
2022/09/11 08:44:08;;;;;;;21.30;10.00;;;;;;;10.42;100.00;99289.81;4202203;28;20347;-75
2022/09/11 08:46:37;;;;;;;23.00;9.57;;;;;;;10.45;100.00;99289.47;4213214;28;21505;-41
2022/09/11 08:49:26;;;;;;;18.90;8.90;;;;;;;10.39;100.00;99284.81;4217930;28;20523;-72
2022/09/11 08:51:56;;;;;;;19.80;9.47;;;;;;;10.43;100.00;99280.81;4208781;28;20233;-71
2022/09/11 08:54:27;;;;;;;20.63;9.80;;;;;;;10.39;100.00;99290.13;4179961;28;20302;-69
2022/09/11 08:57:15;;;;;;;21.27;9.67;;;;;;;10.47;100.00;99294.63;4193079;28;20340;-72
2022/09/11 09:00:11;;;;;;;22.13;10.80;;;;;;;10.42;100.00;99291.63;4202112;28;20234;-70
2022/09/11 09:02:45;;;;;;;19.93;9.97;;;;;;;10.53;100.00;99292.06;4203118;28;20360;-69
2022/09/11 09:05:31;;;;;;;20.63;11.10;;;;;;;10.52;100.00;99294.94;4190000;28;20250;-71
2022/09/11 09:08:19;;;;;;;20.70;10.07;;;;;;;10.51;100.00;99299.44;4207605;28;21561;-71
2022/09/11 09:10:51;;;;;;;24.67;11.07;;;;;;;10.51;100.00;99298.56;4210488;28;22811;-68
2022/09/11 09:13:46;;;;;;;21.10;10.27;;;;;;;10.51;100.00;99296.75;4215762;28;20298;-68
2022/09/11 09:16:20;;;;;;;23.57;10.80;;;;;;;10.44;100.00;99311.75;4210783;28;20306;-68
2022/09/11 09:18:51;;;;;;;24.67;11.70;;;;;;;10.39;100.00;99308.75;4195479;28;20231;-69
2022/09/11 09:21:30;;;;;;;18.53;10.30;;;;;;;10.35;100.00;99308.28;4191427;28;20299;-72
2022/09/11 09:24:01;;;;;;;15.63;8.80;;;;;;;10.31;100.00;99314.13;4193779;28;22076;-68
2022/09/11 09:26:38;;;;;;;17.47;7.90;;;;;;;10.31;100.00;99312.28;4185208;28;20304;-68
2022/09/11 09:29:10;;;;;;;16.97;8.00;;;;;;;10.28;100.00;99319.75;4198889;28;22225;-70
2022/09/11 09:31:37;;;;;;;15.30;6.63;;;;;;;10.21;100.00;99310.78;4194684;28;21158;-70
2022/09/11 09:34:14;;;;;;;13.33;6.50;;;;;;;10.15;100.00;99312.28;4207357;28;21357;-68
2022/09/11 09:36:58;;;;;;;12.43;6.90;;;;;;;10.22;100.00;99309.78;4204658;28;20235;-67
2022/09/11 09:39:24;;;;;;;15.13;7.20;;;;;;;10.24;100.00;99311.28;4189687;28;20312;-72
2022/09/11 09:41:55;;;;;;;13.53;6.20;;;;;;;10.23;100.00;99324.72;4192471;28;20358;-67
2022/09/11 09:44:42;;;;;;;11.70;5.67;;;;;;;10.14;100.00;99322.09;4200053;28;20343;-70
2022/09/11 09:47:11;;;;;;;11.20;4.63;;;;;;;10.12;100.00;99323.28;4190046;28;20388;-69
2022/09/11 09:49:37;;;;;;;13.20;5.37;;;;;;;10.03;100.00;99321.63;4187299;28;25335;-71
2022/09/11 09:52:19;;;;;;;10.93;4.77;;;;;;;10.02;100.00;99328.78;4194217;28;20336;-76
2022/09/11 09:55:18;;;;;;;7.30;4.17;;;;;;;10.09;100.00;99324.44;4190748;28;20884;-67
2022/09/11 09:57:44;;;;;;;7.43;4.27;;;;;;;10.10;100.00;99319.97;4184238;28;20237;-68
2022/09/11 10:00:16;;;;;;;7.37;3.57;;;;;;;10.13;100.00;99319.59;4189859;28;20251;-71
2022/09/11 10:02:53;;;;;;;8.27;3.87;;;;;;;10.17;100.00;99317.44;4185998;28;20242;-71
2022/09/11 10:05:25;;;;;;;11.67;4.70;;;;;;;10.24;100.00;99311.28;4171518;28;20248;-69
2022/09/11 10:08:04;;;;;;;7.97;4.13;;;;;;;10.29;100.00;99308.13;4182366;28;20571;-68
2022/09/11 10:10:39;;;;;;;9.67;4.60;;;;;;;10.33;100.00;99314.78;4190663;28;20299;-66
2022/09/11 10:13:23;;;;;;;8.93;4.10;;;;;;;10.39;100.00;99308.75;4182650;28;20305;-68
2022/09/11 10:15:52;;;;;;;11.23;4.57;;;;;;;10.49;100.00;99314.72;4193399;28;20702;-66
2022/09/11 10:18:28;;;;;;;7.33;4.43;;;;;;;10.57;100.00;99320.00;4185002;28;21117;-67
2022/09/11 10:21:10;;;;;;;8.83;4.50;;;;;;;10.58;100.00;99318.16;4188175;28;20237;-72
2022/09/11 10:23:56;;;;;;;9.53;4.87;;;;;;;10.77;100.00;99323.09;4168034;28;20521;-68
2022/09/11 10:26:34;;;;;;;9.43;4.83;;;;;;;10.76;100.00;99321.41;4192681;28;20746;-71
2022/09/11 10:29:14;;;;;;;7.97;4.77;;;;;;;10.75;100.00;99318.94;4183339;28;20232;-70
2022/09/11 10:31:48;;;;;;;13.37;5.53;;;;;;;10.76;100.00;99315.25;4180797;28;21063;-71
2022/09/11 10:34:19;;;;;;;10.97;5.00;;;;;;;10.84;100.00;99312.56;4205280;28;21675;-72
2022/09/11 10:37:01;;;;;;;11.60;4.70;;;;;;;10.80;100.00;99305.13;4203680;28;20241;-71
2022/09/11 10:39:30;;;;;;;10.13;4.90;;;;;;;10.92;100.00;99309.84;4217922;28;20590;-68
2022/09/11 10:42:03;;;;;;;9.90;5.17;;;;;;;10.84;100.00;99301.06;4217475;28;20226;-70
2022/09/11 10:44:29;;;;;;;12.03;5.73;;;;;;;10.91;100.00;99304.69;4213998;28;20254;-73
2022/09/11 10:47:11;;;;;;;10.97;5.30;;;;;;;11.12;100.00;99301.41;4191004;28;22477;-70
2022/09/11 10:49:37;;;;;;;12.97;5.30;;;;;;;11.31;100.00;99297.47;4187521;28;22664;-70
2022/09/11 10:52:07;;;;;;;12.00;6.07;;;;;;;11.35;100.00;99298.75;4197458;28;20486;-69
2022/09/11 10:54:40;;;;;;;14.03;6.20;;;;;;;11.45;100.00;99293.19;4203107;28;20583;-70
2022/09/11 10:57:25;;;;;;;10.60;5.90;;;;;;;11.59;100.00;99295.09;4195546;28;20237;-69
2022/09/11 11:00:01;;;;;;;13.10;6.20;;;;;;;11.65;100.00;99291.69;4197642;28;21281;-70
2022/09/11 11:02:33;;;;;;;9.40;5.53;;;;;;;11.74;100.00;99293.28;4216809;28;20608;-69
2022/09/11 11:05:07;;;;;;;12.43;6.63;;;;;;;11.93;100.00;99293.81;4176418;28;20251;-69
2022/09/11 11:08:08;;;;;;;12.57;5.93;;;;;;;12.10;100.00;99289.13;4189995;28;21858;-73
2022/09/11 11:10:54;;;;;;;14.80;7.00;;;;;;;12.19;100.00;99288.84;4183444;28;20230;-69
2022/09/11 11:13:21;;;;;;;16.67;6.37;;;;;;;12.31;100.00;99293.72;4215022;28;21292;-69
2022/09/11 11:16:12;;;;;;;13.07;7.30;;;;;;;12.40;100.00;99289.97;4201638;28;21173;-71
2022/09/11 11:18:42;;;;;;;15.13;6.73;;;;;;;12.34;100.00;99286.19;4205170;28;20351;-73
2022/09/11 11:21:17;;;;;;;18.40;7.10;;;;;;;12.56;100.00;99297.75;4218259;28;20595;-67
2022/09/11 11:24:16;;;;;;;15.67;6.57;;;;;;;12.50;100.00;99285.16;4199729;28;20402;-71
2022/09/11 11:26:56;;;;;;;12.43;6.50;;;;;;;12.58;100.00;99284.25;4188489;28;22267;-69
2022/09/11 11:29:49;;;;;;;13.93;7.03;;;;;;;12.58;100.00;99289.59;4195159;28;21107;-72
2022/09/11 11:32:18;;;;;;;12.23;6.23;;;;;;;12.52;100.00;99287.66;4206142;28;20292;-70
2022/09/11 11:35:17;;;;;;;16.00;7.00;;;;;;;12.48;100.00;99281.03;4197676;28;20346;-70